createdAt,value
2022-10-19T00:01:32.111Z,9.35
2022-10-19T00:03:59.966Z,9.29
2022-10-19T00:06:29.962Z,9.30
2022-10-19T00:09:09.053Z,9.23
2022-10-19T00:11:38.708Z,9.24
2022-10-19T00:14:05.551Z,9.22
2022-10-19T00:16:37.775Z,9.17
2022-10-19T00:19:07.683Z,9.21
2022-10-19T00:21:34.210Z,9.23
2022-10-19T00:24:00.859Z,9.16
2022-10-19T00:26:27.939Z,9.13
2022-10-19T00:28:55.667Z,9.08
2022-10-19T00:31:22.278Z,9.11
2022-10-19T00:33:48.815Z,9.13
2022-10-19T00:36:24.381Z,9.15
2022-10-19T00:38:52.026Z,9.22
2022-10-19T00:41:19.745Z,9.23
2022-10-19T00:44:27.487Z,9.21
2022-10-19T00:46:57.710Z,9.21
2022-10-19T00:49:28.461Z,9.16
2022-10-19T00:52:14.755Z,8.94
2022-10-19T00:54:43.218Z,8.77
2022-10-19T00:57:10.688Z,8.77
2022-10-19T00:59:39.696Z,8.78
2022-10-19T01:02:06.811Z,8.74
2022-10-19T01:04:36.937Z,8.70
2022-10-19T01:07:05.027Z,8.67
2022-10-19T01:09:31.589Z,8.72
2022-10-19T01:12:26.224Z,8.76
2022-10-19T01:15:08.071Z,8.76
2022-10-19T01:18:16.215Z,8.76
2022-10-19T01:20:58.404Z,8.69
2022-10-19T01:23:54.471Z,8.75
2022-10-19T01:26:42.098Z,8.76
2022-10-19T01:29:43.185Z,8.71
2022-10-19T01:32:23.995Z,8.73
2022-10-19T01:34:58.560Z,8.78
2022-10-19T01:37:35.861Z,8.84
2022-10-19T01:40:28.131Z,8.88
2022-10-19T01:43:03.040Z,8.84
2022-10-19T01:45:52.644Z,8.72
2022-10-19T01:48:25.627Z,8.68
2022-10-19T01:51:06.135Z,8.70
2022-10-19T01:53:37.730Z,8.70
2022-10-19T01:56:05.588Z,8.73
2022-10-19T01:58:35.953Z,8.78
2022-10-19T02:01:07.413Z,8.80
2022-10-19T02:03:35.413Z,8.79
2022-10-19T02:06:06.125Z,8.79
2022-10-19T02:08:41.486Z,8.80
2022-10-19T02:11:08.237Z,8.80
2022-10-19T02:13:36.465Z,8.79
2022-10-19T02:16:08.905Z,8.85
2022-10-19T02:18:40.585Z,8.85
2022-10-19T02:21:07.588Z,8.84
2022-10-19T02:23:34.192Z,8.93
2022-10-19T02:26:00.755Z,8.97
2022-10-19T02:28:28.924Z,8.98
2022-10-19T02:30:56.011Z,8.98
2022-10-19T02:33:22.578Z,9.03
2022-10-19T02:35:49.258Z,9.04
2022-10-19T02:38:21.123Z,9.02
2022-10-19T02:41:16.691Z,9.03
2022-10-19T02:43:49.070Z,9.07
2022-10-19T02:46:24.531Z,9.04
2022-10-19T02:48:51.851Z,9.05
2022-10-19T02:51:58.269Z,9.07
2022-10-19T02:54:25.623Z,9.07
2022-10-19T02:56:52.318Z,9.17
2022-10-19T02:59:19.047Z,9.29
2022-10-19T03:01:45.593Z,9.35
2022-10-19T03:04:12.144Z,9.39
2022-10-19T03:06:38.682Z,9.40
2022-10-19T03:09:05.285Z,9.44
2022-10-19T03:11:31.830Z,9.48
2022-10-19T03:13:58.314Z,9.52
2022-10-19T03:16:24.864Z,9.45
2022-10-19T03:18:51.886Z,9.47
2022-10-19T03:21:19.062Z,9.52
2022-10-19T03:23:45.551Z,9.55
2022-10-19T03:26:15.126Z,9.56
2022-10-19T03:28:41.666Z,9.56
2022-10-19T03:31:08.371Z,9.57
2022-10-19T03:33:34.893Z,9.54
2022-10-19T03:36:28.046Z,9.57
2022-10-19T03:39:00.021Z,9.66
2022-10-19T03:41:29.418Z,9.72
2022-10-19T03:43:56.898Z,9.78
2022-10-19T03:46:24.183Z,9.79
2022-10-19T03:48:50.926Z,9.74
2022-10-19T03:51:21.208Z,9.72
2022-10-19T03:53:51.888Z,9.71
2022-10-19T03:56:20.281Z,9.70
2022-10-19T03:58:48.773Z,9.70
2022-10-19T04:01:18.209Z,9.78
2022-10-19T04:03:45.370Z,9.89
2022-10-19T04:06:19.647Z,9.92
2022-10-19T04:08:49.393Z,9.94
2022-10-19T04:11:22.835Z,9.90
2022-10-19T04:13:50.592Z,9.89
2022-10-19T04:16:17.874Z,9.96
2022-10-19T04:18:44.489Z,10.04
2022-10-19T04:21:21.904Z,10.24
2022-10-19T04:23:49.397Z,10.38
2022-10-19T04:26:16.027Z,10.50
2022-10-19T04:28:42.608Z,10.62
2022-10-19T04:31:12.259Z,10.69
2022-10-19T04:33:39.565Z,10.74
2022-10-19T04:36:09.039Z,10.72
2022-10-19T04:38:35.729Z,10.80
2022-10-19T04:41:13.450Z,10.84
2022-10-19T04:43:40.582Z,10.90
2022-10-19T04:46:10.409Z,10.88
2022-10-19T04:48:38.398Z,10.87
2022-10-19T04:51:05.951Z,10.85
2022-10-19T04:53:33.669Z,10.87
2022-10-19T04:56:03.904Z,10.85
2022-10-19T04:58:30.425Z,10.85
2022-10-19T05:00:56.945Z,10.79
2022-10-19T05:03:23.489Z,10.80
2022-10-19T05:05:50.740Z,10.74
2022-10-19T05:08:17.307Z,10.74
2022-10-19T05:10:47.014Z,10.77
2022-10-19T05:13:14.804Z,10.74
2022-10-19T05:15:41.463Z,10.70
2022-10-19T05:18:07.978Z,10.66
2022-10-19T05:20:34.534Z,10.61
2022-10-19T05:23:06.140Z,10.56
2022-10-19T05:25:33.863Z,10.55
2022-10-19T05:28:00.555Z,10.53
2022-10-19T05:30:27.051Z,10.51
2022-10-19T05:32:53.539Z,10.48
2022-10-19T05:35:22.687Z,10.39
2022-10-19T05:37:54.451Z,10.31
2022-10-19T05:40:20.953Z,10.30
2022-10-19T05:42:47.449Z,10.21
2022-10-19T05:45:13.967Z,10.28
2022-10-19T05:47:40.450Z,10.28
2022-10-19T05:50:07.250Z,10.30
2022-10-19T05:52:33.735Z,10.35
2022-10-19T05:55:00.263Z,10.38
2022-10-19T05:57:26.816Z,10.39
2022-10-19T05:59:56.643Z,10.41
2022-10-19T06:02:23.220Z,10.44
2022-10-19T06:04:50.200Z,10.50
2022-10-19T06:07:16.728Z,10.53
2022-10-19T06:09:43.237Z,10.59
2022-10-19T06:12:09.770Z,10.69
2022-10-19T06:14:36.291Z,10.77
2022-10-19T06:17:02.820Z,10.89
2022-10-19T06:19:29.306Z,10.96
2022-10-19T06:21:55.930Z,11.07
2022-10-19T06:24:22.411Z,11.20
2022-10-19T06:26:49.031Z,11.32
2022-10-19T06:29:15.517Z,11.46
2022-10-19T06:31:42.044Z,11.60
2022-10-19T06:34:08.637Z,11.75
2022-10-19T06:36:35.459Z,11.92
2022-10-19T06:39:02.127Z,12.04
2022-10-19T06:41:31.202Z,12.20
2022-10-19T06:43:57.737Z,12.33
2022-10-19T06:46:25.971Z,12.46
2022-10-19T06:48:54.519Z,12.57
2022-10-19T06:51:21.966Z,12.69
2022-10-19T06:53:54.215Z,12.91
2022-10-19T06:56:24.531Z,13.04
2022-10-19T06:58:51.291Z,13.12
2022-10-19T07:01:18.465Z,13.27
2022-10-19T07:03:45.067Z,13.41
2022-10-19T07:06:12.969Z,13.50
2022-10-19T07:08:41.755Z,13.60
2022-10-19T07:11:22.330Z,13.71
2022-10-19T07:13:48.896Z,13.79
2022-10-19T07:16:20.650Z,13.90
2022-10-19T07:18:49.885Z,14.02
2022-10-19T07:21:17.803Z,14.13
2022-10-19T07:23:47.259Z,14.20
2022-10-19T07:26:40.143Z,14.29
2022-10-19T07:29:06.678Z,14.44
2022-10-19T07:31:33.232Z,14.53
2022-10-19T07:34:02.504Z,14.67
2022-10-19T07:36:31.556Z,14.75
2022-10-19T07:38:58.122Z,14.88
2022-10-19T07:41:26.061Z,15.00
2022-10-19T07:43:53.381Z,15.14
2022-10-19T07:46:22.389Z,15.25
2022-10-19T07:48:49.710Z,15.39
2022-10-19T07:51:17.972Z,15.51
2022-10-19T07:53:44.966Z,15.59
2022-10-19T07:56:18.969Z,15.71
2022-10-19T07:58:46.059Z,15.82
2022-10-19T08:01:18.599Z,15.94
2022-10-19T08:06:32.971Z,16.18
2022-10-19T08:08:59.762Z,16.28
2022-10-19T08:11:28.790Z,16.40
2022-10-19T08:13:55.552Z,16.55
2022-10-19T08:16:42.134Z,16.69
2022-10-19T08:19:11.563Z,16.82
2022-10-19T08:21:40.547Z,16.97
2022-10-19T08:24:08.221Z,17.10
2022-10-19T08:26:38.269Z,17.24
2022-10-19T08:29:08.549Z,17.37
2022-10-19T08:31:35.036Z,17.53
2022-10-19T08:34:02.066Z,17.68
2022-10-19T08:36:31.294Z,17.82
2022-10-19T08:38:58.744Z,17.95
2022-10-19T08:41:44.375Z,18.10
2022-10-19T08:44:29.220Z,18.27
2022-10-19T08:47:23.571Z,18.40
2022-10-19T08:49:50.983Z,18.52
2022-10-19T08:52:24.900Z,18.64
2022-10-19T08:54:54.352Z,18.76
2022-10-19T08:57:42.286Z,18.90
2022-10-19T09:03:37.782Z,19.23
2022-10-19T09:06:27.606Z,19.35
2022-10-19T09:08:57.049Z,19.48
2022-10-19T09:11:27.965Z,19.56
2022-10-19T09:14:11.967Z,19.67
2022-10-19T09:16:38.622Z,19.86
2022-10-19T09:19:32.030Z,20.09
2022-10-19T09:22:04.370Z,20.21
2022-10-19T09:25:05.892Z,20.54
2022-10-19T09:27:38.855Z,20.84
2022-10-19T09:30:18.024Z,21.20
2022-10-19T09:32:44.662Z,21.66
2022-10-19T09:35:13.861Z,21.98
2022-10-19T09:37:44.803Z,22.20
2022-10-19T09:40:26.991Z,22.18
2022-10-19T09:43:03.762Z,22.38
2022-10-19T09:45:46.121Z,22.51
2022-10-19T09:48:27.732Z,22.45
2022-10-19T09:51:02.866Z,22.76
2022-10-19T09:53:30.175Z,22.75
2022-10-19T09:56:03.237Z,23.22
2022-10-19T09:58:33.074Z,23.39
2022-10-19T10:01:01.877Z,23.65
2022-10-19T10:03:43.541Z,23.81
2022-10-19T10:06:15.398Z,23.70
2022-10-19T10:08:52.741Z,23.74
2022-10-19T10:11:32.974Z,24.10
2022-10-19T10:14:15.532Z,24.12
2022-10-19T10:16:42.044Z,24.67
2022-10-19T10:19:13.767Z,25.15
2022-10-19T10:21:49.276Z,25.81
2022-10-19T10:24:16.762Z,26.07
2022-10-19T10:26:45.803Z,25.99
2022-10-19T10:29:24.344Z,26.14
2022-10-19T10:31:53.477Z,25.99
2022-10-19T10:35:00.973Z,26.20
2022-10-19T10:37:47.905Z,26.92
2022-10-19T10:40:28.205Z,27.26
2022-10-19T10:42:58.314Z,26.98
2022-10-19T10:45:42.916Z,27.63
2022-10-19T10:48:27.526Z,28.43
2022-10-19T10:50:54.682Z,28.88
2022-10-19T10:53:45.280Z,29.33
2022-10-19T10:56:24.236Z,30.09
2022-10-19T10:58:53.709Z,30.54
2022-10-19T11:01:23.363Z,31.19
2022-10-19T11:03:57.242Z,31.64
2022-10-19T11:06:26.648Z,31.92
2022-10-19T11:09:38.210Z,31.75
2022-10-19T11:12:09.947Z,32.00
2022-10-19T11:14:48.493Z,32.25
2022-10-19T11:17:21.453Z,32.93
2022-10-19T11:19:51.308Z,33.19
2022-10-19T11:22:44.826Z,32.93
2022-10-19T11:25:40.215Z,32.65
2022-10-19T11:28:45.271Z,32.47
2022-10-19T11:31:14.746Z,32.66
2022-10-19T11:34:00.042Z,32.36
2022-10-19T11:36:32.635Z,32.75
2022-10-19T11:39:36.353Z,32.68
2022-10-19T11:42:23.803Z,32.91
2022-10-19T11:44:59.234Z,32.99
2022-10-19T11:47:52.099Z,33.09
2022-10-19T11:50:35.526Z,33.76
2022-10-19T11:53:18.447Z,34.18
2022-10-19T11:56:01.075Z,33.21
2022-10-19T11:58:42.431Z,33.00
2022-10-19T12:01:21.014Z,32.24
2022-10-19T12:04:09.011Z,32.89
2022-10-19T12:07:03.382Z,32.75
2022-10-19T12:09:43.122Z,33.13
2022-10-19T12:12:18.500Z,33.59
2022-10-19T12:14:49.955Z,33.40
2022-10-19T12:17:26.983Z,33.41
2022-10-19T12:19:59.813Z,33.61
2022-10-19T12:22:30.508Z,33.07
2022-10-19T12:25:00.213Z,33.47
2022-10-19T12:27:34.445Z,33.21
2022-10-19T12:30:06.871Z,33.65
2022-10-19T12:32:59.291Z,32.49
2022-10-19T12:35:49.569Z,33.01
2022-10-19T12:38:25.046Z,32.55
2022-10-19T12:41:02.946Z,31.79
2022-10-19T12:43:49.202Z,32.04
2022-10-19T12:46:48.361Z,32.67
2022-10-19T12:49:30.144Z,33.00
2022-10-19T12:51:59.030Z,33.03
2022-10-19T12:54:28.219Z,33.20
2022-10-19T12:56:57.878Z,32.93
2022-10-19T12:59:27.574Z,33.16
2022-10-19T13:01:54.760Z,31.71
2022-10-19T13:04:25.023Z,31.26
2022-10-19T13:07:01.715Z,32.28
2022-10-19T13:09:35.913Z,32.70
2022-10-19T13:12:17.729Z,32.58
2022-10-19T13:15:02.244Z,32.41
2022-10-19T13:17:37.962Z,33.03
2022-10-19T13:20:13.795Z,32.87
2022-10-19T13:22:45.745Z,32.76
2022-10-19T13:25:23.463Z,32.69
2022-10-19T13:27:51.699Z,32.60
2022-10-19T13:30:39.249Z,32.82
2022-10-19T13:33:33.031Z,32.71
2022-10-19T13:35:59.485Z,32.93
2022-10-19T13:38:32.816Z,32.09
2022-10-19T13:41:07.149Z,31.31
2022-10-19T13:43:33.715Z,31.18
2022-10-19T13:46:24.180Z,30.85
2022-10-19T13:48:59.414Z,31.37
2022-10-19T13:51:56.383Z,31.36
2022-10-19T13:54:22.830Z,31.30
2022-10-19T13:57:06.427Z,31.50
2022-10-19T13:59:32.872Z,31.27
2022-10-19T14:02:47.474Z,30.98
2022-10-19T14:05:50.765Z,30.73
2022-10-19T14:09:04.892Z,30.35
2022-10-19T14:11:35.575Z,30.17
2022-10-19T14:14:11.231Z,29.81
2022-10-19T14:16:46.796Z,29.89
2022-10-19T14:19:14.369Z,29.53
2022-10-19T14:21:41.296Z,29.81
2022-10-19T14:24:40.009Z,29.76
2022-10-19T14:27:08.038Z,28.39
2022-10-19T14:29:43.701Z,28.25
2022-10-19T14:32:11.921Z,28.30
2022-10-19T14:34:42.772Z,28.18
2022-10-19T14:37:24.259Z,27.42
2022-10-19T14:40:23.561Z,27.38
2022-10-19T14:42:53.401Z,26.72
2022-10-19T14:45:23.237Z,26.43
2022-10-19T14:47:59.310Z,26.11
2022-10-19T14:50:29.646Z,24.92
2022-10-19T14:53:03.023Z,24.49
2022-10-19T14:55:36.047Z,24.22
2022-10-19T14:58:07.168Z,23.37
2022-10-19T15:00:33.782Z,23.15
2022-10-19T15:03:05.203Z,22.75
2022-10-19T15:05:36.426Z,22.40
2022-10-19T15:08:17.108Z,21.66
2022-10-19T15:10:48.375Z,21.29
2022-10-19T15:13:25.512Z,21.36
2022-10-19T15:15:53.478Z,21.08
2022-10-19T15:18:43.874Z,20.86
2022-10-19T15:21:18.167Z,20.80
2022-10-19T15:23:52.415Z,20.54
2022-10-19T15:26:24.582Z,20.56
2022-10-19T15:28:51.760Z,20.57
2022-10-19T15:31:21.356Z,20.24
2022-10-19T15:33:51.075Z,20.14
2022-10-19T15:36:19.938Z,19.62
2022-10-19T15:38:49.187Z,19.34
2022-10-19T15:41:25.510Z,19.31
2022-10-19T15:43:54.451Z,19.02
2022-10-19T15:46:31.725Z,18.93
2022-10-19T15:49:17.641Z,18.33
2022-10-19T15:51:48.548Z,18.01
2022-10-19T15:54:17.487Z,18.00
2022-10-19T15:56:46.410Z,18.12
2022-10-19T15:59:18.950Z,18.03
2022-10-19T16:01:52.436Z,17.56
2022-10-19T16:04:21.627Z,17.51
2022-10-19T16:06:48.136Z,17.29
2022-10-19T16:09:18.647Z,17.04
2022-10-19T16:11:45.305Z,16.83
2022-10-19T16:14:11.874Z,16.84
2022-10-19T16:16:38.655Z,16.50
2022-10-19T16:19:05.181Z,16.14
2022-10-19T16:21:35.091Z,15.83
2022-10-19T16:24:02.018Z,15.69
2022-10-19T16:26:28.913Z,15.76
2022-10-19T16:28:56.164Z,15.73
2022-10-19T16:31:23.864Z,15.60
2022-10-19T16:33:51.135Z,15.56
2022-10-19T16:36:20.801Z,15.38
2022-10-19T16:38:48.039Z,15.38
2022-10-19T16:41:15.012Z,15.37
2022-10-19T16:43:41.635Z,15.24
2022-10-19T16:46:08.394Z,15.12
2022-10-19T16:48:35.140Z,15.15
2022-10-19T16:51:07.556Z,15.13
2022-10-19T16:53:35.364Z,15.08
2022-10-19T16:56:10.303Z,15.02
2022-10-19T16:58:37.577Z,14.97
2022-10-19T17:01:16.374Z,14.77
2022-10-19T17:03:47.402Z,14.76
2022-10-19T17:06:15.490Z,14.57
2022-10-19T17:09:14.750Z,14.52
2022-10-19T17:11:31.926Z,14.49
2022-10-19T17:14:01.468Z,14.57
2022-10-19T17:16:30.895Z,14.48
2022-10-19T17:18:59.556Z,14.47
2022-10-19T17:21:28.853Z,14.46
2022-10-19T17:23:57.915Z,14.44
2022-10-19T17:26:30.346Z,14.37
2022-10-19T17:28:59.440Z,14.38
2022-10-19T17:31:26.796Z,14.39
2022-10-19T17:33:53.753Z,14.40
2022-10-19T17:36:23.097Z,14.36
2022-10-19T17:38:49.646Z,14.38
2022-10-19T17:41:18.221Z,14.29
2022-10-19T17:43:46.798Z,14.22
2022-10-19T17:46:16.033Z,14.24
2022-10-19T17:48:43.806Z,14.20
2022-10-19T17:51:19.222Z,14.22
2022-10-19T17:53:48.169Z,14.24
2022-10-19T17:56:18.124Z,14.05
2022-10-19T17:58:45.071Z,14.12
2022-10-19T18:01:12.504Z,14.09
2022-10-19T18:03:40.152Z,14.04
2022-10-19T18:06:10.525Z,13.92
2022-10-19T18:08:40.538Z,13.92
2022-10-19T18:11:11.058Z,13.84
2022-10-19T18:13:38.569Z,13.75
2022-10-19T18:16:10.950Z,13.61
2022-10-19T18:18:39.542Z,13.69
2022-10-19T18:21:11.776Z,13.56
2022-10-19T18:23:38.818Z,13.49
2022-10-19T18:26:08.919Z,13.47
2022-10-19T18:28:35.784Z,13.45
2022-10-19T18:31:11.446Z,13.40
2022-10-19T18:33:38.910Z,13.34
2022-10-19T18:36:06.930Z,13.29
2022-10-19T18:38:33.561Z,13.31
2022-10-19T18:43:54.347Z,13.21
2022-10-19T18:46:22.550Z,13.03
2022-10-19T18:48:49.907Z,12.99
2022-10-19T18:51:17.974Z,12.87
2022-10-19T18:53:45.291Z,12.78
2022-10-19T18:56:14.150Z,12.74
2022-10-19T18:58:40.718Z,12.70
2022-10-19T19:01:11.114Z,12.56
2022-10-19T19:03:39.833Z,12.45
2022-10-19T19:06:12.776Z,12.29
2022-10-19T19:08:39.712Z,12.19
2022-10-19T19:11:15.490Z,12.26
2022-10-19T19:13:46.544Z,12.28
2022-10-19T19:16:13.112Z,12.25
2022-10-19T19:18:39.679Z,12.34
2022-10-19T19:21:17.886Z,12.18
2022-10-19T19:23:44.597Z,12.20
2022-10-19T19:26:12.995Z,12.09
2022-10-19T19:28:41.790Z,11.99
2022-10-19T19:31:10.343Z,11.93
2022-10-19T19:33:37.384Z,11.88
2022-10-19T19:36:05.818Z,11.78
2022-10-19T19:38:33.011Z,11.87
2022-10-19T19:40:59.643Z,11.84
2022-10-19T19:43:26.131Z,11.80
2022-10-19T19:45:57.332Z,11.73
2022-10-19T19:48:23.878Z,11.45
2022-10-19T19:50:52.774Z,11.37
2022-10-19T19:53:19.604Z,11.33
2022-10-19T19:55:47.635Z,11.41
2022-10-19T19:58:15.555Z,11.47
2022-10-19T20:00:43.130Z,11.37
2022-10-19T20:03:12.279Z,11.35
2022-10-19T20:05:40.227Z,11.26
2022-10-19T20:08:07.637Z,11.17
2022-10-19T20:10:38.774Z,11.14
2022-10-19T20:13:05.494Z,11.09
2022-10-19T20:15:32.179Z,11.04
2022-10-19T20:17:58.733Z,10.98
2022-10-19T20:20:25.251Z,10.92
2022-10-19T20:22:51.782Z,10.78
2022-10-19T20:25:18.451Z,10.66
2022-10-19T20:27:44.959Z,10.56
2022-10-19T20:30:11.941Z,10.46
2022-10-19T20:32:38.809Z,10.35
2022-10-19T20:35:06.114Z,10.20
2022-10-19T20:37:32.647Z,10.23
2022-10-19T20:40:00.669Z,10.11
2022-10-19T20:42:27.941Z,10.03
2022-10-19T20:44:55.479Z,9.88
2022-10-19T20:47:22.027Z,9.76
2022-10-19T20:49:48.656Z,9.66
2022-10-19T20:52:15.203Z,9.51
2022-10-19T20:54:41.654Z,9.52
2022-10-19T20:57:08.151Z,9.42
2022-10-19T20:59:34.642Z,9.26
2022-10-19T21:02:01.196Z,9.16
2022-10-19T21:04:27.848Z,9.06
2022-10-19T21:06:54.363Z,8.91
2022-10-19T21:09:23.350Z,8.95
2022-10-19T21:11:51.609Z,8.93
2022-10-19T21:14:25.252Z,8.78
2022-10-19T21:16:56.594Z,8.71
2022-10-19T21:19:25.447Z,8.79
2022-10-19T21:21:57.775Z,8.66
2022-10-19T21:24:27.060Z,8.67
2022-10-19T21:26:53.961Z,8.42
2022-10-19T21:29:20.711Z,8.33
2022-10-19T21:31:49.510Z,8.30
2022-10-19T21:34:18.702Z,8.22
2022-10-19T21:36:45.241Z,8.11
2022-10-19T21:39:13.043Z,8.00
2022-10-19T21:41:39.642Z,7.96
2022-10-19T21:44:07.395Z,7.86
2022-10-19T21:46:33.881Z,7.87
2022-10-19T21:49:00.446Z,7.80
2022-10-19T21:51:37.442Z,7.74
2022-10-19T21:54:06.739Z,7.73
2022-10-19T21:56:34.187Z,7.65
2022-10-19T21:59:00.686Z,7.55
2022-10-19T22:01:29.586Z,7.51
2022-10-19T22:04:01.639Z,7.57
2022-10-19T22:06:30.369Z,7.52
2022-10-19T22:08:57.815Z,7.48
2022-10-19T22:11:25.087Z,7.47
2022-10-19T22:14:00.351Z,7.51
2022-10-19T22:16:28.097Z,7.37
2022-10-19T22:18:55.363Z,7.36
2022-10-19T22:21:29.030Z,7.34
2022-10-19T22:23:58.447Z,7.33
2022-10-19T22:26:30.498Z,7.33
2022-10-19T22:28:58.710Z,7.41
2022-10-19T22:31:27.540Z,7.39
2022-10-19T22:33:54.296Z,7.34
2022-10-19T22:36:20.976Z,7.36
2022-10-19T22:38:47.721Z,7.29
2022-10-19T22:42:10.530Z,7.26
2022-10-19T22:44:37.113Z,7.24
2022-10-19T22:47:03.755Z,7.22
2022-10-19T22:49:30.329Z,7.30
2022-10-19T22:51:56.834Z,7.27
2022-10-19T22:54:23.400Z,7.31
2022-10-19T22:56:51.022Z,7.28
2022-10-19T22:59:17.578Z,7.24
2022-10-19T23:01:44.121Z,7.18
2022-10-19T23:04:10.654Z,7.15
2022-10-19T23:06:37.198Z,7.13
2022-10-19T23:09:04.326Z,7.06
2022-10-19T23:11:31.083Z,7.08
2022-10-19T23:13:57.795Z,7.10
2022-10-19T23:16:24.399Z,7.04
2022-10-19T23:18:50.975Z,6.93
2022-10-19T23:21:17.707Z,6.88
2022-10-19T23:23:44.486Z,6.87
2022-10-19T23:26:10.972Z,6.87
2022-10-19T23:28:39.308Z,6.89
2022-10-19T23:31:17.606Z,6.85
2022-10-19T23:33:44.696Z,6.76
2022-10-19T23:36:23.555Z,6.70
2022-10-19T23:38:51.561Z,6.66
2022-10-19T23:41:19.057Z,6.66
2022-10-19T23:43:46.264Z,6.57
2022-10-19T23:46:13.089Z,6.48
2022-10-19T23:48:40.514Z,6.40
2022-10-19T23:51:10.131Z,6.37
2022-10-19T23:53:40.932Z,6.41
2022-10-19T23:56:14.151Z,6.36
2022-10-19T23:58:40.967Z,6.33
